createdAt,value
2022-08-01T00:00:11.652Z,15.70
2022-08-01T00:02:39.931Z,15.70
2022-08-01T00:05:09.142Z,15.60
2022-08-01T00:07:37.292Z,15.60
2022-08-01T00:10:05.735Z,15.60
2022-08-01T00:12:33.250Z,15.60
2022-08-01T00:15:01.142Z,15.60
2022-08-01T00:17:28.673Z,15.60
2022-08-01T00:19:56.231Z,15.50
2022-08-01T00:22:24.011Z,15.50
2022-08-01T00:24:51.502Z,15.50
2022-08-01T00:27:18.952Z,15.50
2022-08-01T00:30:13.016Z,15.40
2022-08-01T00:32:34.159Z,15.20
2022-08-01T00:35:01.638Z,15.20
2022-08-01T00:37:29.045Z,15.10
2022-08-01T00:39:56.531Z,15.00
2022-08-01T00:42:23.969Z,14.90
2022-08-01T00:44:51.483Z,14.90
2022-08-01T00:47:18.841Z,14.80
2022-08-01T00:49:46.364Z,14.70
2022-08-01T00:52:13.940Z,14.70
2022-08-01T00:54:41.819Z,14.60
2022-08-01T00:57:10.767Z,14.60
2022-08-01T00:59:40.177Z,14.50
2022-08-01T01:02:14.864Z,14.40
2022-08-01T01:04:44.131Z,14.40
2022-08-01T01:07:22.552Z,14.30
2022-08-01T01:10:22.331Z,14.20
2022-08-01T01:13:14.411Z,14.10
2022-08-01T01:15:43.791Z,13.90
2022-08-01T01:18:18.531Z,13.90
2022-08-01T01:20:53.271Z,13.70
2022-08-01T01:23:41.392Z,13.70
2022-08-01T01:26:37.430Z,13.50
2022-08-01T01:29:16.697Z,13.40
2022-08-01T01:32:13.291Z,13.30
2022-08-01T01:34:44.874Z,13.10
2022-08-01T01:37:26.473Z,13.10
2022-08-01T01:39:55.452Z,13.00
2022-08-01T01:42:27.072Z,12.90
2022-08-01T01:44:55.994Z,12.80
2022-08-01T01:47:25.592Z,12.70
2022-08-01T01:49:55.280Z,12.70
2022-08-01T01:52:25.489Z,12.60
2022-08-01T01:54:53.831Z,12.60
2022-08-01T01:57:22.374Z,12.50
2022-08-01T01:59:52.473Z,12.50
2022-08-01T02:02:24.834Z,12.50
2022-08-01T02:04:54.311Z,12.50
2022-08-01T02:07:25.302Z,12.40
2022-08-01T02:09:55.354Z,12.30
2022-08-01T02:12:23.089Z,12.20
2022-08-01T02:14:53.813Z,12.10
2022-08-01T02:17:22.924Z,12.10
2022-08-01T02:19:50.439Z,12.10
2022-08-01T02:22:21.651Z,12.10
2022-08-01T02:25:03.372Z,12.10
2022-08-01T02:27:43.734Z,12.10
2022-08-01T02:30:15.245Z,12.00
2022-08-01T02:32:42.604Z,12.00
2022-08-01T02:35:31.942Z,12.10
2022-08-01T02:38:01.913Z,12.00
2022-08-01T02:40:33.972Z,12.10
2022-08-01T02:43:04.896Z,12.00
2022-08-01T02:45:34.812Z,12.10
2022-08-01T02:48:12.820Z,12.10
2022-08-01T02:50:43.736Z,12.10
2022-08-01T02:53:13.773Z,12.10
2022-08-01T02:55:43.831Z,12.20
2022-08-01T02:58:13.536Z,12.30
2022-08-01T03:00:42.453Z,12.20
2022-08-01T03:03:12.162Z,12.40
2022-08-01T03:05:43.774Z,12.40
2022-08-01T03:08:14.901Z,12.50
2022-08-01T03:10:45.720Z,12.50
2022-08-01T03:13:15.812Z,12.60
2022-08-01T03:15:45.140Z,12.60
2022-08-01T03:18:14.819Z,12.70
2022-08-01T03:20:44.094Z,12.80
2022-08-01T03:23:13.833Z,12.80
2022-08-01T03:25:44.552Z,12.80
2022-08-01T03:28:15.213Z,12.90
2022-08-01T03:30:44.411Z,12.90
2022-08-01T03:33:14.493Z,12.90
2022-08-01T03:35:49.296Z,12.90
2022-08-01T03:38:20.294Z,13.00
2022-08-01T03:41:33.527Z,13.10
2022-08-01T03:44:09.094Z,13.20
2022-08-01T03:46:48.355Z,13.30
2022-08-01T03:49:21.465Z,13.30
2022-08-01T03:51:50.938Z,13.30
2022-08-01T03:54:23.194Z,13.40
2022-08-01T03:56:52.674Z,13.30
2022-08-01T03:59:21.781Z,13.40
2022-08-01T04:01:49.927Z,13.60
2022-08-01T04:04:17.566Z,13.50
2022-08-01T04:06:46.156Z,13.60
2022-08-01T04:09:14.067Z,13.60
2022-08-01T04:11:44.994Z,13.50
2022-08-01T04:14:12.418Z,13.60
2022-08-01T04:16:39.930Z,13.60
2022-08-01T04:19:10.498Z,13.70
2022-08-01T04:21:38.388Z,13.70
2022-08-01T04:24:19.199Z,13.80
2022-08-01T04:26:48.953Z,13.90
2022-08-01T04:29:18.857Z,14.20
2022-08-01T04:31:49.137Z,14.30
2022-08-01T04:34:21.873Z,14.50
2022-08-01T04:36:50.936Z,14.70
2022-08-01T04:39:20.266Z,14.90
2022-08-01T04:41:49.142Z,15.20
2022-08-01T04:44:17.701Z,15.60
2022-08-01T04:46:46.507Z,16.00
2022-08-01T04:49:17.636Z,15.90
2022-08-01T04:52:04.449Z,15.90
2022-08-01T04:54:35.055Z,16.00
2022-08-01T04:57:02.542Z,16.30
2022-08-01T04:59:42.576Z,17.50
2022-08-01T05:02:12.413Z,18.70
2022-08-01T05:04:40.977Z,19.60
2022-08-01T05:07:08.964Z,19.70
2022-08-01T05:09:39.934Z,19.50
2022-08-01T05:12:08.334Z,19.20
2022-08-01T05:14:36.660Z,19.20
2022-08-01T05:17:05.440Z,19.30
2022-08-01T05:19:33.618Z,19.20
2022-08-01T05:22:02.899Z,19.40
2022-08-01T05:24:30.517Z,19.80
2022-08-01T05:26:59.157Z,19.80
2022-08-01T05:29:27.433Z,20.60
2022-08-01T05:31:55.245Z,23.40
2022-08-01T05:34:22.775Z,25.20
2022-08-01T05:36:52.962Z,25.40
2022-08-01T05:39:24.131Z,28.40
2022-08-01T05:41:52.311Z,30.50
2022-08-01T05:44:20.053Z,30.70
2022-08-01T05:46:48.921Z,31.10
2022-08-01T05:49:16.699Z,31.90
2022-08-01T05:51:44.076Z,33.80
2022-08-01T05:54:11.533Z,31.40
2022-08-01T05:56:38.926Z,31.30
2022-08-01T05:59:06.315Z,30.40
2022-08-01T06:01:34.135Z,31.10
2022-08-01T06:04:01.593Z,31.20
2022-08-01T06:06:28.892Z,29.00
2022-08-01T06:08:56.183Z,29.70
2022-08-01T06:11:23.516Z,31.20
2022-08-01T06:13:50.904Z,31.10
2022-08-01T06:16:18.394Z,31.70
2022-08-01T06:18:45.821Z,33.10
2022-08-01T06:21:13.192Z,31.00
2022-08-01T06:23:42.585Z,31.00
2022-08-01T06:26:11.046Z,29.90
2022-08-01T06:28:39.720Z,27.20
2022-08-01T06:31:07.203Z,26.80
2022-08-01T06:33:34.665Z,24.90
2022-08-01T06:36:02.052Z,24.60
2022-08-01T06:38:29.600Z,23.90
2022-08-01T06:40:57.102Z,23.40
2022-08-01T06:43:24.717Z,23.00
2022-08-01T06:45:52.212Z,23.30
2022-08-01T06:48:19.607Z,24.00
2022-08-01T06:50:47.174Z,24.10
2022-08-01T06:53:14.629Z,24.00
2022-08-01T06:55:42.074Z,24.30
2022-08-01T06:58:09.384Z,23.70
2022-08-01T07:00:36.950Z,23.80
2022-08-01T07:03:16.040Z,23.20
2022-08-01T07:05:44.117Z,22.60
2022-08-01T07:08:11.979Z,22.30
2022-08-01T07:10:39.730Z,22.10
2022-08-01T07:13:07.314Z,22.10
2022-08-01T07:15:34.893Z,22.30
2022-08-01T07:18:05.066Z,22.40
2022-08-01T07:20:37.689Z,22.90
2022-08-01T07:23:09.755Z,23.20
2022-08-01T07:25:40.560Z,23.70
2022-08-01T07:28:18.345Z,23.10
2022-08-01T07:30:45.861Z,22.70
2022-08-01T07:33:13.576Z,22.90
2022-08-01T07:35:41.941Z,22.90
2022-08-01T07:38:12.652Z,22.70
2022-08-01T07:40:40.393Z,22.80
2022-08-01T07:43:07.793Z,22.50
2022-08-01T07:45:36.760Z,22.70
2022-08-01T07:48:09.245Z,22.80
2022-08-01T07:50:36.873Z,22.70
2022-08-01T07:53:04.829Z,22.70
2022-08-01T07:55:32.372Z,22.20
2022-08-01T07:57:59.892Z,22.00
2022-08-01T08:00:28.674Z,22.30
2022-08-01T08:02:59.945Z,22.50
2022-08-01T08:05:57.667Z,23.10
2022-08-01T08:08:19.427Z,23.90
2022-08-01T08:10:58.584Z,24.30
2022-08-01T08:13:26.124Z,24.80
2022-08-01T08:15:54.132Z,24.80
2022-08-01T08:18:21.613Z,24.40
2022-08-01T08:20:50.115Z,24.10
2022-08-01T08:23:41.936Z,23.90
2022-08-01T08:26:12.240Z,23.80
2022-08-01T08:28:51.852Z,25.00
2022-08-01T08:31:25.674Z,25.20
2022-08-01T08:34:06.512Z,24.50
2022-08-01T08:36:33.935Z,24.60
2022-08-01T08:39:01.962Z,25.20
2022-08-01T08:41:37.871Z,25.70
2022-08-01T08:44:10.286Z,25.80
2022-08-01T08:46:46.888Z,26.10
2022-08-01T08:49:19.054Z,25.70
2022-08-01T08:51:49.334Z,24.50
2022-08-01T08:54:19.036Z,25.20
2022-08-01T08:56:48.503Z,25.50
2022-08-01T08:59:16.294Z,25.90
2022-08-01T09:01:44.343Z,25.90
2022-08-01T09:04:12.232Z,25.90
2022-08-01T09:06:40.446Z,26.70
2022-08-01T09:09:09.532Z,26.90
2022-08-01T09:11:37.993Z,25.70
2022-08-01T09:14:14.780Z,26.20
2022-08-01T09:16:48.835Z,25.80
2022-08-01T09:19:39.774Z,25.90
2022-08-01T09:22:10.281Z,26.30
2022-08-01T09:24:38.532Z,26.50
2022-08-01T09:27:21.767Z,26.50
2022-08-01T09:30:00.607Z,26.70
2022-08-01T09:32:35.230Z,27.30
2022-08-01T09:35:43.786Z,27.20
2022-08-01T09:38:19.281Z,26.70
2022-08-01T09:41:02.609Z,26.60
2022-08-01T09:43:32.471Z,26.30
2022-08-01T09:46:01.683Z,25.80
2022-08-01T09:48:29.820Z,25.90
2022-08-01T09:51:04.440Z,26.00
2022-08-01T09:53:51.039Z,26.00
2022-08-01T09:56:19.224Z,26.20
2022-08-01T09:59:01.563Z,26.40
2022-08-01T10:01:46.195Z,26.60
2022-08-01T10:04:17.426Z,26.20
2022-08-01T10:06:50.891Z,26.20
2022-08-01T10:09:39.926Z,26.40
2022-08-01T10:12:15.567Z,26.60
2022-08-01T10:14:46.479Z,26.00
2022-08-01T10:17:19.743Z,26.10
2022-08-01T10:19:51.711Z,26.50
2022-08-01T10:22:21.344Z,25.60
2022-08-01T10:24:51.371Z,25.60
2022-08-01T10:27:24.672Z,26.00
2022-08-01T10:30:20.087Z,26.30
2022-08-01T10:32:55.387Z,26.30
2022-08-01T10:35:45.847Z,26.00
2022-08-01T10:38:13.904Z,25.70
2022-08-01T10:40:45.994Z,25.20
2022-08-01T10:43:21.284Z,24.70
2022-08-01T10:45:50.774Z,25.00
2022-08-01T10:48:24.548Z,25.40
2022-08-01T10:50:55.809Z,25.40
2022-08-01T10:53:31.083Z,25.40
2022-08-01T10:56:02.709Z,25.10
2022-08-01T10:58:42.955Z,24.80
2022-08-01T11:01:31.426Z,24.70
2022-08-01T11:04:17.631Z,24.50
2022-08-01T11:07:07.206Z,24.50
2022-08-01T11:09:51.431Z,24.60
2022-08-01T11:12:23.319Z,24.60
2022-08-01T11:15:03.085Z,24.70
2022-08-01T11:17:42.999Z,25.40
2022-08-01T11:20:24.503Z,26.30
2022-08-01T11:23:07.023Z,26.80
2022-08-01T11:26:06.116Z,25.70
2022-08-01T11:28:32.797Z,25.70
2022-08-01T11:31:11.055Z,26.00
2022-08-01T11:33:42.307Z,25.70
2022-08-01T11:36:56.684Z,25.40
2022-08-01T11:39:13.767Z,24.60
2022-08-01T11:41:42.733Z,24.50
2022-08-01T11:44:24.742Z,24.50
2022-08-01T11:47:09.699Z,24.20
2022-08-01T11:49:49.097Z,24.10
2022-08-01T11:52:32.975Z,23.90
2022-08-01T11:55:05.195Z,24.10
2022-08-01T11:57:38.979Z,24.00
2022-08-01T12:00:15.476Z,24.10
2022-08-01T12:02:45.612Z,24.60
2022-08-01T12:05:15.849Z,24.30
2022-08-01T12:07:45.014Z,24.30
2022-08-01T12:10:14.793Z,24.60
2022-08-01T12:13:04.753Z,24.40
2022-08-01T12:15:35.533Z,24.70
2022-08-01T12:18:05.824Z,24.70
2022-08-01T12:20:35.697Z,25.10
2022-08-01T12:23:07.033Z,24.40
2022-08-01T12:25:35.748Z,23.60
2022-08-01T12:28:08.243Z,23.50
2022-08-01T12:30:37.355Z,22.80
2022-08-01T12:33:07.798Z,22.50
2022-08-01T12:35:37.717Z,22.10
2022-08-01T12:38:15.833Z,22.10
2022-08-01T12:40:46.002Z,22.20
2022-08-01T12:43:27.036Z,22.20
2022-08-01T12:45:58.733Z,21.70
2022-08-01T12:48:27.874Z,21.70
2022-08-01T12:50:59.035Z,21.40
2022-08-01T12:53:40.628Z,21.30
2022-08-01T12:56:09.333Z,21.10
2022-08-01T12:58:36.958Z,21.10
2022-08-01T13:01:07.264Z,20.80
2022-08-01T13:03:35.022Z,20.80
2022-08-01T13:06:10.562Z,20.80
2022-08-01T13:08:39.637Z,20.70
2022-08-01T13:11:10.895Z,20.70
2022-08-01T13:13:52.880Z,20.60
2022-08-01T13:16:30.636Z,20.30
2022-08-01T13:25:58.658Z,19.20
2022-08-01T13:28:29.376Z,19.10
2022-08-01T13:31:03.122Z,18.80
2022-08-01T13:33:46.296Z,18.80
2022-08-01T13:36:28.266Z,18.80
2022-08-01T13:39:15.251Z,18.80
2022-08-01T13:41:43.085Z,18.80
2022-08-01T13:44:11.663Z,18.90
2022-08-01T13:46:40.311Z,19.20
2022-08-01T13:49:17.722Z,19.30
2022-08-01T13:51:47.649Z,19.20
2022-08-01T13:54:27.795Z,18.90
2022-08-01T13:56:57.587Z,18.80
2022-08-01T13:59:24.973Z,19.10
2022-08-01T14:01:52.770Z,19.40
2022-08-01T14:04:20.424Z,19.80
2022-08-01T14:06:48.198Z,19.90
2022-08-01T14:09:24.214Z,20.10
2022-08-01T14:11:53.421Z,20.10
2022-08-01T14:14:20.972Z,19.90
2022-08-01T14:16:48.712Z,19.70
2022-08-01T14:19:19.332Z,19.70
2022-08-01T14:21:50.594Z,19.60
2022-08-01T14:24:19.572Z,19.80
2022-08-01T14:26:47.334Z,20.10
2022-08-01T14:29:14.748Z,20.30
2022-08-01T14:31:42.246Z,20.70
2022-08-01T14:34:10.085Z,21.10
2022-08-01T14:36:38.309Z,21.30
2022-08-01T14:39:06.915Z,21.50
2022-08-01T14:41:38.881Z,21.30
2022-08-01T14:44:06.930Z,21.20
2022-08-01T14:46:34.245Z,21.20
2022-08-01T14:49:03.318Z,21.40
2022-08-01T14:51:34.332Z,21.20
2022-08-01T14:54:01.816Z,21.40
2022-08-01T14:56:31.480Z,21.20
2022-08-01T14:58:59.955Z,21.10
2022-08-01T15:01:27.521Z,20.90
2022-08-01T15:03:54.902Z,20.80
2022-08-01T15:06:22.368Z,20.50
2022-08-01T15:08:49.920Z,20.50
2022-08-01T15:11:17.772Z,20.50
2022-08-01T15:13:45.234Z,20.30
2022-08-01T15:16:12.661Z,20.20
2022-08-01T15:18:40.375Z,20.30
2022-08-01T15:21:07.900Z,20.30
2022-08-01T15:23:35.356Z,20.50
2022-08-01T15:26:02.764Z,20.50
2022-08-01T15:28:30.263Z,20.50
2022-08-01T15:30:59.584Z,20.20
2022-08-01T15:33:27.948Z,20.10
2022-08-01T15:35:55.613Z,20.10
2022-08-01T15:38:24.520Z,20.30
2022-08-01T15:40:51.945Z,20.20
2022-08-01T15:43:19.545Z,20.30
2022-08-01T15:45:48.994Z,20.30
2022-08-01T15:48:18.042Z,20.20
2022-08-01T15:50:45.635Z,20.20
2022-08-01T15:53:13.084Z,20.10
2022-08-01T15:55:40.704Z,20.20
2022-08-01T15:58:08.564Z,20.10
2022-08-01T16:00:40.124Z,20.20
2022-08-01T16:03:08.824Z,20.40
2022-08-01T16:05:42.846Z,20.60
2022-08-01T16:08:14.408Z,20.60
2022-08-01T16:10:42.074Z,20.70
2022-08-01T16:13:10.267Z,20.70
2022-08-01T16:15:39.474Z,20.80
2022-08-01T16:18:09.024Z,20.90
2022-08-01T16:20:42.801Z,20.90
2022-08-01T16:23:13.043Z,20.90
2022-08-01T16:25:40.384Z,21.00
2022-08-01T16:28:09.302Z,21.10
2022-08-01T16:30:37.367Z,21.40
2022-08-01T16:33:08.474Z,21.40
2022-08-01T16:35:44.218Z,21.50
2022-08-01T16:38:14.013Z,21.50
2022-08-01T16:40:47.472Z,21.70
2022-08-01T16:43:16.537Z,21.90
2022-08-01T16:45:44.448Z,22.00
2022-08-01T16:48:13.226Z,22.00
2022-08-01T16:50:40.671Z,21.90
2022-08-01T16:53:08.066Z,21.80
2022-08-01T16:55:49.497Z,21.90
2022-08-01T16:58:22.256Z,21.70
2022-08-01T17:00:57.634Z,21.70
2022-08-01T17:03:51.709Z,21.80
2022-08-01T17:06:14.185Z,21.80
2022-08-01T17:08:47.201Z,21.70
2022-08-01T17:11:15.832Z,21.70
2022-08-01T17:13:44.085Z,21.90
2022-08-01T17:16:12.454Z,21.90
2022-08-01T17:18:40.286Z,21.70
2022-08-01T17:21:07.707Z,21.50
2022-08-01T17:23:36.119Z,21.40
2022-08-01T17:26:03.966Z,21.30
2022-08-01T17:28:31.371Z,21.10
2022-08-01T17:30:58.810Z,21.00
2022-08-01T17:33:44.553Z,20.90
2022-08-01T17:36:15.242Z,20.80
2022-08-01T17:38:43.007Z,20.70
2022-08-01T17:41:10.644Z,20.50
2022-08-01T17:43:38.114Z,20.20
2022-08-01T17:46:05.674Z,20.10
2022-08-01T17:48:32.865Z,20.00
2022-08-01T17:51:00.630Z,19.90
2022-08-01T17:53:28.523Z,19.80
2022-08-01T17:55:58.753Z,19.70
2022-08-01T17:58:51.490Z,19.50
2022-08-01T18:01:16.390Z,19.40
2022-08-01T18:03:45.043Z,19.40
2022-08-01T18:06:14.328Z,19.40
2022-08-01T18:08:53.151Z,19.30
2022-08-01T18:11:24.642Z,19.20
2022-08-01T18:13:54.862Z,19.10
2022-08-01T18:16:22.587Z,18.90
2022-08-01T18:18:50.127Z,18.80
2022-08-01T18:21:17.486Z,18.70
2022-08-01T18:23:51.740Z,18.60
2022-08-01T18:26:21.600Z,18.40
2022-08-01T18:28:49.413Z,18.20
2022-08-01T18:31:17.922Z,18.20
2022-08-01T18:33:45.667Z,18.10
2022-08-01T18:36:19.208Z,18.10
2022-08-01T18:39:01.746Z,18.10
2022-08-01T18:41:29.447Z,18.10
2022-08-01T18:44:04.222Z,18.00
2022-08-01T18:46:36.197Z,18.00
2022-08-01T18:49:03.701Z,17.90
2022-08-01T18:51:31.074Z,17.80
2022-08-01T18:54:00.666Z,17.60
2022-08-01T18:56:28.424Z,17.50
2022-08-01T18:58:56.517Z,17.40
2022-08-01T19:01:23.908Z,17.30
2022-08-01T19:03:54.269Z,17.00
2022-08-01T19:06:21.749Z,16.80
2022-08-01T19:08:49.413Z,16.70
2022-08-01T19:11:16.847Z,16.40
2022-08-01T19:13:44.278Z,16.30
2022-08-01T19:16:11.768Z,16.20
2022-08-01T19:18:40.331Z,16.00
2022-08-01T19:21:07.767Z,15.90
2022-08-01T19:23:53.935Z,15.80
2022-08-01T19:26:23.879Z,15.60
2022-08-01T19:28:56.387Z,15.60
2022-08-01T19:31:27.749Z,15.50
2022-08-01T19:33:57.534Z,15.40
2022-08-01T19:36:25.102Z,15.40
2022-08-01T19:38:52.627Z,15.20
2022-08-01T19:41:20.127Z,15.10
2022-08-01T19:43:48.210Z,15.10
2022-08-01T19:46:17.766Z,15.10
2022-08-01T19:48:50.063Z,15.00
2022-08-01T19:51:33.691Z,14.90
2022-08-01T19:54:05.958Z,14.90
2022-08-01T19:56:40.484Z,14.80
2022-08-01T19:59:08.821Z,14.70
2022-08-01T20:01:37.323Z,14.70
2022-08-01T20:04:06.326Z,14.70
2022-08-01T20:06:35.570Z,14.70
2022-08-01T20:09:04.818Z,14.70
2022-08-01T20:11:32.180Z,14.70
2022-08-01T20:14:00.808Z,14.70
2022-08-01T20:16:30.352Z,14.70
2022-08-01T20:18:58.148Z,14.70
2022-08-01T20:21:27.349Z,14.70
2022-08-01T20:24:02.576Z,14.70
2022-08-01T20:26:32.350Z,14.80
2022-08-01T20:29:01.428Z,14.80
2022-08-01T20:31:38.465Z,14.90
2022-08-01T20:34:16.726Z,14.90
2022-08-01T20:36:54.475Z,15.00
2022-08-01T20:39:26.642Z,15.00
2022-08-01T20:44:54.416Z,15.20
2022-08-01T20:47:22.361Z,15.20
2022-08-01T20:49:52.257Z,15.10
2022-08-01T20:52:21.500Z,15.10
2022-08-01T20:54:49.770Z,15.10
2022-08-01T20:57:25.581Z,15.10
2022-08-01T21:00:05.258Z,15.10
2022-08-01T21:03:01.580Z,15.10
2022-08-01T21:05:32.079Z,15.00
2022-08-01T21:08:10.956Z,14.90
2022-08-01T21:10:43.401Z,14.80
2022-08-01T21:13:21.707Z,14.80
2022-08-01T21:16:23.954Z,14.80
2022-08-01T21:22:09.951Z,14.80
2022-08-01T21:24:58.773Z,14.80
2022-08-01T21:27:32.782Z,14.80
2022-08-01T21:30:07.891Z,14.70
2022-08-01T21:32:37.847Z,14.70
2022-08-01T21:35:15.696Z,14.80
2022-08-01T21:37:51.938Z,14.80
2022-08-01T21:40:24.940Z,14.70
2022-08-01T21:42:54.480Z,14.70
2022-08-01T21:45:27.392Z,14.80
2022-08-01T21:47:56.858Z,14.70
2022-08-01T21:50:24.891Z,14.60
2022-08-01T21:53:31.968Z,14.60
2022-08-01T21:55:59.844Z,14.50
2022-08-01T21:58:41.053Z,14.50
2022-08-01T22:01:18.150Z,14.50
2022-08-01T22:03:47.925Z,14.50
2022-08-01T22:06:16.788Z,14.50
2022-08-01T22:08:53.480Z,14.50
2022-08-01T22:11:23.759Z,14.60
2022-08-01T22:13:57.518Z,14.60
2022-08-01T22:16:26.820Z,14.60
2022-08-01T22:18:54.889Z,14.50
2022-08-01T22:21:22.556Z,14.50
2022-08-01T22:23:54.117Z,14.50
2022-08-01T22:26:27.241Z,14.50
2022-08-01T22:28:56.875Z,14.50
2022-08-01T22:31:24.587Z,14.60
2022-08-01T22:33:52.707Z,14.50
2022-08-01T22:36:20.969Z,14.60
2022-08-01T22:38:48.659Z,14.60
2022-08-01T22:41:19.415Z,14.60
2022-08-01T22:44:30.056Z,14.60
2022-08-01T22:47:31.799Z,14.50
2022-08-01T22:50:05.482Z,14.50
2022-08-01T22:52:39.798Z,14.50
2022-08-01T22:55:09.652Z,14.40
2022-08-01T22:57:57.853Z,14.40
2022-08-01T23:00:30.457Z,14.40
2022-08-01T23:03:16.046Z,14.40
2022-08-01T23:05:57.355Z,14.50
2022-08-01T23:08:26.687Z,14.50
2022-08-01T23:10:55.413Z,14.60
2022-08-01T23:13:24.717Z,14.70
2022-08-01T23:15:53.118Z,14.70
2022-08-01T23:18:22.482Z,14.70
2022-08-01T23:20:52.908Z,14.80
2022-08-01T23:23:30.657Z,14.80
2022-08-01T23:26:00.276Z,14.80
2022-08-01T23:28:28.992Z,14.80
2022-08-01T23:30:56.805Z,14.80
2022-08-01T23:33:24.240Z,14.90
2022-08-01T23:35:51.878Z,14.90
2022-08-01T23:38:20.496Z,14.90
2022-08-01T23:40:47.874Z,14.90
2022-08-01T23:43:17.635Z,14.90
2022-08-01T23:46:03.522Z,14.90
2022-08-01T23:48:34.396Z,14.90
2022-08-01T23:51:02.780Z,14.90
2022-08-01T23:53:31.187Z,14.90
2022-08-01T23:56:00.978Z,14.80
2022-08-01T23:58:30.246Z,14.80
